sensor_id;sensor_type;location;lat;lon;timestamp;P1;durP1;ratioP1;P2;durP2;ratioP2
61572;SDS011;47465;43.094;12.434;2023-02-23T00:00:37;47.17;;;29.27;;
61572;SDS011;47465;43.094;12.434;2023-02-23T00:03:03;47.38;;;29.08;;
61572;SDS011;47465;43.094;12.434;2023-02-23T00:05:30;45.88;;;29.48;;
61572;SDS011;47465;43.094;12.434;2023-02-23T00:08:00;49.28;;;30.05;;
61572;SDS011;47465;43.094;12.434;2023-02-23T00:10:27;49.22;;;29.77;;
61572;SDS011;47465;43.094;12.434;2023-02-23T00:12:54;52.05;;;30.00;;
61572;SDS011;47465;43.094;12.434;2023-02-23T00:15:22;49.65;;;29.35;;
61572;SDS011;47465;43.094;12.434;2023-02-23T00:17:51;52.55;;;31.23;;
61572;SDS011;47465;43.094;12.434;2023-02-23T00:20:18;50.20;;;31.20;;
61572;SDS011;47465;43.094;12.434;2023-02-23T00:22:51;53.03;;;29.20;;
61572;SDS011;47465;43.094;12.434;2023-02-23T00:25:18;50.38;;;29.42;;
61572;SDS011;47465;43.094;12.434;2023-02-23T00:27:45;47.90;;;29.13;;
61572;SDS011;47465;43.094;12.434;2023-02-23T00:30:12;48.70;;;28.95;;
61572;SDS011;47465;43.094;12.434;2023-02-23T00:32:38;49.58;;;30.67;;
61572;SDS011;47465;43.094;12.434;2023-02-23T00:35:05;49.65;;;29.95;;
61572;SDS011;47465;43.094;12.434;2023-02-23T00:38:06;47.83;;;29.08;;
61572;SDS011;47465;43.094;12.434;2023-02-23T00:40:32;49.20;;;30.10;;
61572;SDS011;47465;43.094;12.434;2023-02-23T00:42:58;49.60;;;29.60;;
61572;SDS011;47465;43.094;12.434;2023-02-23T00:45:24;47.78;;;29.27;;
61572;SDS011;47465;43.094;12.434;2023-02-23T00:47:51;50.95;;;29.08;;
61572;SDS011;47465;43.094;12.434;2023-02-23T00:50:20;49.45;;;29.85;;
61572;SDS011;47465;43.094;12.434;2023-02-23T00:52:46;47.60;;;29.52;;
61572;SDS011;47465;43.094;12.434;2023-02-23T00:55:13;50.50;;;29.92;;
61572;SDS011;47465;43.094;12.434;2023-02-23T00:57:40;49.92;;;30.60;;
61572;SDS011;47465;43.094;12.434;2023-02-23T01:00:07;49.22;;;30.90;;
61572;SDS011;47465;43.094;12.434;2023-02-23T01:02:44;50.00;;;31.23;;
61572;SDS011;47465;43.094;12.434;2023-02-23T01:05:11;50.35;;;31.17;;
61572;SDS011;47465;43.094;12.434;2023-02-23T01:07:38;48.35;;;30.40;;
61572;SDS011;47465;43.094;12.434;2023-02-23T01:10:04;44.75;;;28.67;;
61572;SDS011;47465;43.094;12.434;2023-02-23T01:12:45;48.08;;;28.42;;
61572;SDS011;47465;43.094;12.434;2023-02-23T01:15:12;50.45;;;31.17;;
61572;SDS011;47465;43.094;12.434;2023-02-23T01:17:38;45.47;;;29.20;;
61572;SDS011;47465;43.094;12.434;2023-02-23T01:20:04;50.30;;;29.30;;
61572;SDS011;47465;43.094;12.434;2023-02-23T01:33:30;41.97;;;23.50;;
61572;SDS011;47465;43.094;12.434;2023-02-23T01:35:56;39.65;;;24.25;;
61572;SDS011;47465;43.094;12.434;2023-02-23T01:38:22;44.15;;;25.65;;
61572;SDS011;47465;43.094;12.434;2023-02-23T01:40:48;43.10;;;24.75;;
61572;SDS011;47465;43.094;12.434;2023-02-23T01:43:17;44.10;;;25.05;;
61572;SDS011;47465;43.094;12.434;2023-02-23T01:45:50;43.33;;;27.45;;
61572;SDS011;47465;43.094;12.434;2023-02-23T01:48:19;40.72;;;26.42;;
61572;SDS011;47465;43.094;12.434;2023-02-23T01:50:49;42.42;;;26.63;;
61572;SDS011;47465;43.094;12.434;2023-02-23T01:53:19;41.97;;;25.70;;
61572;SDS011;47465;43.094;12.434;2023-02-23T01:55:46;44.03;;;25.90;;
61572;SDS011;47465;43.094;12.434;2023-02-23T01:58:15;45.90;;;27.05;;
61572;SDS011;47465;43.094;12.434;2023-02-23T02:00:45;43.55;;;26.45;;
61572;SDS011;47465;43.094;12.434;2023-02-23T02:03:16;45.83;;;27.27;;
61572;SDS011;47465;43.094;12.434;2023-02-23T02:05:52;42.15;;;26.98;;
61572;SDS011;47465;43.094;12.434;2023-02-23T02:08:19;39.92;;;25.45;;
61572;SDS011;47465;43.094;12.434;2023-02-23T02:10:51;42.80;;;26.92;;
61572;SDS011;47465;43.094;12.434;2023-02-23T02:13:22;39.38;;;25.73;;
61572;SDS011;47465;43.094;12.434;2023-02-23T02:19:11;49.25;;;29.85;;
61572;SDS011;47465;43.094;12.434;2023-02-23T02:27:55;46.45;;;29.25;;
61572;SDS011;47465;43.094;12.434;2023-02-23T02:33:54;50.75;;;31.23;;
61572;SDS011;47465;43.094;12.434;2023-02-23T02:36:47;45.55;;;28.58;;
61572;SDS011;47465;43.094;12.434;2023-02-23T02:39:36;48.65;;;27.58;;
61572;SDS011;47465;43.094;12.434;2023-02-23T02:42:14;41.65;;;27.50;;
61572;SDS011;47465;43.094;12.434;2023-02-23T02:44:47;46.53;;;27.38;;
61572;SDS011;47465;43.094;12.434;2023-02-23T02:47:19;42.65;;;26.10;;
61572;SDS011;47465;43.094;12.434;2023-02-23T02:49:50;42.00;;;27.35;;
61572;SDS011;47465;43.094;12.434;2023-02-23T02:52:27;43.95;;;27.63;;
61572;SDS011;47465;43.094;12.434;2023-02-23T02:55:00;47.22;;;27.20;;
61572;SDS011;47465;43.094;12.434;2023-02-23T02:57:36;42.92;;;26.90;;
61572;SDS011;47465;43.094;12.434;2023-02-23T03:00:05;43.70;;;25.80;;
61572;SDS011;47465;43.094;12.434;2023-02-23T03:03:28;40.80;;;25.15;;
61572;SDS011;47465;43.094;12.434;2023-02-23T03:06:27;39.05;;;25.00;;
61572;SDS011;47465;43.094;12.434;2023-02-23T03:09:35;40.85;;;24.73;;
61572;SDS011;47465;43.094;12.434;2023-02-23T03:12:49;41.90;;;25.75;;
61572;SDS011;47465;43.094;12.434;2023-02-23T03:15:58;44.63;;;27.27;;
61572;SDS011;47465;43.094;12.434;2023-02-23T03:19:10;40.65;;;27.10;;
61572;SDS011;47465;43.094;12.434;2023-02-23T03:22:20;43.17;;;25.77;;
61572;SDS011;47465;43.094;12.434;2023-02-23T03:25:23;40.97;;;26.45;;
61572;SDS011;47465;43.094;12.434;2023-02-23T03:28:29;39.58;;;25.40;;
61572;SDS011;47465;43.094;12.434;2023-02-23T03:31:39;42.15;;;24.55;;
61572;SDS011;47465;43.094;12.434;2023-02-23T03:34:47;40.90;;;24.80;;
61572;SDS011;47465;43.094;12.434;2023-02-23T03:37:52;37.63;;;24.98;;
61572;SDS011;47465;43.094;12.434;2023-02-23T03:40:57;41.10;;;25.52;;
61572;SDS011;47465;43.094;12.434;2023-02-23T03:43:59;40.22;;;24.40;;
61572;SDS011;47465;43.094;12.434;2023-02-23T03:47:06;41.22;;;26.30;;
61572;SDS011;47465;43.094;12.434;2023-02-23T03:50:10;41.47;;;26.23;;
61572;SDS011;47465;43.094;12.434;2023-02-23T03:53:20;39.60;;;24.67;;
61572;SDS011;47465;43.094;12.434;2023-02-23T03:56:27;37.20;;;23.85;;
61572;SDS011;47465;43.094;12.434;2023-02-23T03:59:31;39.28;;;24.65;;
61572;SDS011;47465;43.094;12.434;2023-02-23T04:02:37;41.42;;;24.73;;
61572;SDS011;47465;43.094;12.434;2023-02-23T04:05:41;36.92;;;24.45;;
61572;SDS011;47465;43.094;12.434;2023-02-23T04:08:42;39.00;;;25.23;;
61572;SDS011;47465;43.094;12.434;2023-02-23T04:11:45;41.08;;;25.70;;
61572;SDS011;47465;43.094;12.434;2023-02-23T04:14:50;38.10;;;24.58;;
61572;SDS011;47465;43.094;12.434;2023-02-23T04:17:57;41.65;;;25.17;;
61572;SDS011;47465;43.094;12.434;2023-02-23T04:20:23;42.30;;;25.88;;
61572;SDS011;47465;43.094;12.434;2023-02-23T04:22:50;41.30;;;26.33;;
61572;SDS011;47465;43.094;12.434;2023-02-23T04:25:16;48.40;;;29.17;;
61572;SDS011;47465;43.094;12.434;2023-02-23T04:27:43;48.20;;;29.15;;
61572;SDS011;47465;43.094;12.434;2023-02-23T04:30:09;43.00;;;28.83;;
61572;SDS011;47465;43.094;12.434;2023-02-23T04:32:36;42.53;;;27.98;;
61572;SDS011;47465;43.094;12.434;2023-02-23T04:35:04;47.47;;;30.27;;
61572;SDS011;47465;43.094;12.434;2023-02-23T04:37:30;44.83;;;28.30;;
61572;SDS011;47465;43.094;12.434;2023-02-23T04:39:59;45.78;;;28.58;;
61572;SDS011;47465;43.094;12.434;2023-02-23T04:42:25;48.43;;;28.73;;
61572;SDS011;47465;43.094;12.434;2023-02-23T04:44:51;43.88;;;27.58;;
61572;SDS011;47465;43.094;12.434;2023-02-23T04:47:17;41.67;;;26.65;;
61572;SDS011;47465;43.094;12.434;2023-02-23T04:49:43;47.55;;;27.83;;
61572;SDS011;47465;43.094;12.434;2023-02-23T04:52:10;43.63;;;27.30;;
61572;SDS011;47465;43.094;12.434;2023-02-23T04:54:36;41.17;;;26.60;;
61572;SDS011;47465;43.094;12.434;2023-02-23T04:57:03;47.15;;;27.33;;
61572;SDS011;47465;43.094;12.434;2023-02-23T04:59:29;43.55;;;28.02;;
61572;SDS011;47465;43.094;12.434;2023-02-23T05:01:55;43.45;;;27.08;;
61572;SDS011;47465;43.094;12.434;2023-02-23T05:04:21;41.70;;;27.50;;
61572;SDS011;47465;43.094;12.434;2023-02-23T05:06:47;43.97;;;28.17;;
61572;SDS011;47465;43.094;12.434;2023-02-23T05:09:14;43.90;;;27.75;;
61572;SDS011;47465;43.094;12.434;2023-02-23T05:11:40;41.00;;;26.08;;
61572;SDS011;47465;43.094;12.434;2023-02-23T05:14:06;43.78;;;28.02;;
61572;SDS011;47465;43.094;12.434;2023-02-23T05:16:34;43.55;;;26.85;;
61572;SDS011;47465;43.094;12.434;2023-02-23T05:19:00;44.53;;;27.75;;
61572;SDS011;47465;43.094;12.434;2023-02-23T05:21:26;48.50;;;28.52;;
61572;SDS011;47465;43.094;12.434;2023-02-23T05:23:52;42.80;;;27.77;;
61572;SDS011;47465;43.094;12.434;2023-02-23T05:26:19;41.58;;;27.40;;
61572;SDS011;47465;43.094;12.434;2023-02-23T05:28:45;42.53;;;27.05;;
61572;SDS011;47465;43.094;12.434;2023-02-23T05:31:11;49.72;;;28.63;;
61572;SDS011;47465;43.094;12.434;2023-02-23T05:33:37;46.22;;;29.00;;
61572;SDS011;47465;43.094;12.434;2023-02-23T05:36:07;46.72;;;28.10;;
61572;SDS011;47465;43.094;12.434;2023-02-23T05:38:35;46.60;;;29.23;;
61572;SDS011;47465;43.094;12.434;2023-02-23T05:41:03;44.88;;;28.83;;
61572;SDS011;47465;43.094;12.434;2023-02-23T05:43:31;46.25;;;28.02;;
61572;SDS011;47465;43.094;12.434;2023-02-23T05:45:57;46.25;;;28.95;;
61572;SDS011;47465;43.094;12.434;2023-02-23T05:48:23;45.55;;;28.05;;
61572;SDS011;47465;43.094;12.434;2023-02-23T05:50:49;49.17;;;30.15;;
61572;SDS011;47465;43.094;12.434;2023-02-23T05:53:15;50.05;;;29.85;;
61572;SDS011;47465;43.094;12.434;2023-02-23T05:55:41;51.33;;;29.67;;
61572;SDS011;47465;43.094;12.434;2023-02-23T05:58:07;48.90;;;28.85;;
61572;SDS011;47465;43.094;12.434;2023-02-23T06:00:34;50.13;;;30.23;;
61572;SDS011;47465;43.094;12.434;2023-02-23T06:03:00;52.00;;;30.73;;
61572;SDS011;47465;43.094;12.434;2023-02-23T06:05:27;48.15;;;30.33;;
61572;SDS011;47465;43.094;12.434;2023-02-23T06:07:54;48.75;;;31.08;;
61572;SDS011;47465;43.094;12.434;2023-02-23T06:10:21;48.53;;;30.45;;
61572;SDS011;47465;43.094;12.434;2023-02-23T06:12:47;51.13;;;30.85;;
61572;SDS011;47465;43.094;12.434;2023-02-23T06:15:13;48.92;;;30.73;;
61572;SDS011;47465;43.094;12.434;2023-02-23T06:17:40;48.30;;;29.67;;
61572;SDS011;47465;43.094;12.434;2023-02-23T06:20:07;47.55;;;28.80;;
61572;SDS011;47465;43.094;12.434;2023-02-23T06:22:33;49.75;;;30.65;;
61572;SDS011;47465;43.094;12.434;2023-02-23T06:24:59;48.75;;;30.83;;
61572;SDS011;47465;43.094;12.434;2023-02-23T06:29:55;51.45;;;32.53;;
61572;SDS011;47465;43.094;12.434;2023-02-23T06:32:22;59.75;;;33.28;;
61572;SDS011;47465;43.094;12.434;2023-02-23T06:34:49;57.35;;;35.65;;
61572;SDS011;47465;43.094;12.434;2023-02-23T06:37:15;58.13;;;33.70;;
61572;SDS011;47465;43.094;12.434;2023-02-23T06:39:41;53.75;;;31.98;;
61572;SDS011;47465;43.094;12.434;2023-02-23T06:42:07;53.28;;;32.63;;
61572;SDS011;47465;43.094;12.434;2023-02-23T06:44:33;54.97;;;32.97;;
61572;SDS011;47465;43.094;12.434;2023-02-23T06:46:59;51.83;;;33.20;;
61572;SDS011;47465;43.094;12.434;2023-02-23T06:49:27;56.65;;;32.90;;
61572;SDS011;47465;43.094;12.434;2023-02-23T06:51:55;54.10;;;32.13;;
61572;SDS011;47465;43.094;12.434;2023-02-23T06:54:22;51.30;;;32.50;;
61572;SDS011;47465;43.094;12.434;2023-02-23T06:56:48;50.05;;;30.95;;
61572;SDS011;47465;43.094;12.434;2023-02-23T06:59:14;52.72;;;31.67;;
61572;SDS011;47465;43.094;12.434;2023-02-23T07:01:40;49.08;;;31.15;;
61572;SDS011;47465;43.094;12.434;2023-02-23T07:04:08;49.90;;;31.42;;
61572;SDS011;47465;43.094;12.434;2023-02-23T07:06:34;51.17;;;31.90;;
61572;SDS011;47465;43.094;12.434;2023-02-23T07:09:03;46.67;;;29.92;;
61572;SDS011;47465;43.094;12.434;2023-02-23T07:11:30;48.03;;;29.58;;
61572;SDS011;47465;43.094;12.434;2023-02-23T07:13:56;46.25;;;27.92;;
61572;SDS011;47465;43.094;12.434;2023-02-23T07:16:22;46.35;;;28.17;;
61572;SDS011;47465;43.094;12.434;2023-02-23T07:18:48;47.13;;;29.00;;
61572;SDS011;47465;43.094;12.434;2023-02-23T07:21:14;43.83;;;26.52;;
61572;SDS011;47465;43.094;12.434;2023-02-23T07:23:40;44.88;;;27.70;;
61572;SDS011;47465;43.094;12.434;2023-02-23T07:26:07;44.00;;;26.38;;
61572;SDS011;47465;43.094;12.434;2023-02-23T07:28:34;38.53;;;25.05;;
61572;SDS011;47465;43.094;12.434;2023-02-23T07:31:00;45.17;;;25.30;;
61572;SDS011;47465;43.094;12.434;2023-02-23T07:33:26;43.15;;;24.83;;
61572;SDS011;47465;43.094;12.434;2023-02-23T07:35:51;40.88;;;24.90;;
61572;SDS011;47465;43.094;12.434;2023-02-23T07:38:17;42.63;;;23.92;;
61572;SDS011;47465;43.094;12.434;2023-02-23T07:40:43;37.55;;;22.35;;
61572;SDS011;47465;43.094;12.434;2023-02-23T07:43:11;37.33;;;21.55;;
61572;SDS011;47465;43.094;12.434;2023-02-23T07:45:37;38.75;;;22.52;;
61572;SDS011;47465;43.094;12.434;2023-02-23T07:48:03;39.20;;;22.42;;
61572;SDS011;47465;43.094;12.434;2023-02-23T07:50:29;32.58;;;19.75;;
61572;SDS011;47465;43.094;12.434;2023-02-23T07:52:55;33.47;;;19.50;;
61572;SDS011;47465;43.094;12.434;2023-02-23T07:55:21;34.30;;;20.42;;
61572;SDS011;47465;43.094;12.434;2023-02-23T07:57:46;42.67;;;24.40;;
61572;SDS011;47465;43.094;12.434;2023-02-23T08:00:16;42.50;;;26.30;;
61572;SDS011;47465;43.094;12.434;2023-02-23T08:02:42;43.63;;;27.17;;
61572;SDS011;47465;43.094;12.434;2023-02-23T08:05:08;42.38;;;26.55;;
61572;SDS011;47465;43.094;12.434;2023-02-23T08:07:34;37.15;;;22.85;;
61572;SDS011;47465;43.094;12.434;2023-02-23T08:10:01;36.85;;;22.42;;
61572;SDS011;47465;43.094;12.434;2023-02-23T08:12:27;37.40;;;22.17;;
61572;SDS011;47465;43.094;12.434;2023-02-23T08:14:53;39.70;;;23.98;;
61572;SDS011;47465;43.094;12.434;2023-02-23T08:17:21;37.60;;;24.00;;
61572;SDS011;47465;43.094;12.434;2023-02-23T08:19:47;40.58;;;23.52;;
61572;SDS011;47465;43.094;12.434;2023-02-23T08:22:17;40.88;;;23.15;;
61572;SDS011;47465;43.094;12.434;2023-02-23T08:24:43;44.20;;;24.70;;
61572;SDS011;47465;43.094;12.434;2023-02-23T08:27:09;42.70;;;26.52;;
61572;SDS011;47465;43.094;12.434;2023-02-23T08:29:38;39.03;;;23.55;;
61572;SDS011;47465;43.094;12.434;2023-02-23T08:32:04;43.35;;;24.42;;
61572;SDS011;47465;43.094;12.434;2023-02-23T08:34:35;41.45;;;22.33;;
61572;SDS011;47465;43.094;12.434;2023-02-23T08:37:02;39.83;;;24.67;;
61572;SDS011;47465;43.094;12.434;2023-02-23T08:39:28;46.08;;;24.48;;
61572;SDS011;47465;43.094;12.434;2023-02-23T08:41:54;41.70;;;24.60;;
61572;SDS011;47465;43.094;12.434;2023-02-23T08:44:20;40.22;;;23.92;;
61572;SDS011;47465;43.094;12.434;2023-02-23T08:46:45;43.75;;;24.27;;
61572;SDS011;47465;43.094;12.434;2023-02-23T08:49:11;37.60;;;23.65;;
61572;SDS011;47465;43.094;12.434;2023-02-23T08:51:39;41.88;;;24.55;;
61572;SDS011;47465;43.094;12.434;2023-02-23T08:54:05;39.08;;;23.88;;
61572;SDS011;47465;43.094;12.434;2023-02-23T08:56:36;42.70;;;25.42;;
61572;SDS011;47465;43.094;12.434;2023-02-23T08:59:03;47.00;;;25.85;;
61572;SDS011;47465;43.094;12.434;2023-02-23T09:01:29;42.63;;;24.48;;
61572;SDS011;47465;43.094;12.434;2023-02-23T09:03:55;42.85;;;23.58;;
61572;SDS011;47465;43.094;12.434;2023-02-23T09:06:21;41.78;;;24.58;;
61572;SDS011;47465;43.094;12.434;2023-02-23T09:08:51;46.35;;;25.98;;
61572;SDS011;47465;43.094;12.434;2023-02-23T09:11:18;44.97;;;26.10;;
61572;SDS011;47465;43.094;12.434;2023-02-23T09:13:44;46.13;;;27.00;;
61572;SDS011;47465;43.094;12.434;2023-02-23T09:16:10;43.35;;;25.73;;
61572;SDS011;47465;43.094;12.434;2023-02-23T09:18:36;46.55;;;26.17;;
61572;SDS011;47465;43.094;12.434;2023-02-23T09:21:03;39.95;;;24.73;;
61572;SDS011;47465;43.094;12.434;2023-02-23T09:23:32;46.45;;;27.42;;
61572;SDS011;47465;43.094;12.434;2023-02-23T09:26:02;48.85;;;26.10;;
61572;SDS011;47465;43.094;12.434;2023-02-23T09:28:29;45.22;;;25.58;;
61572;SDS011;47465;43.094;12.434;2023-02-23T09:30:55;44.50;;;24.90;;
61572;SDS011;47465;43.094;12.434;2023-02-23T09:33:21;42.97;;;26.42;;
61572;SDS011;47465;43.094;12.434;2023-02-23T09:35:47;46.97;;;25.15;;
61572;SDS011;47465;43.094;12.434;2023-02-23T09:38:13;48.63;;;26.08;;
61572;SDS011;47465;43.094;12.434;2023-02-23T09:40:43;43.78;;;24.35;;
61572;SDS011;47465;43.094;12.434;2023-02-23T09:43:13;44.00;;;26.60;;
61572;SDS011;47465;43.094;12.434;2023-02-23T09:45:46;45.22;;;25.58;;
61572;SDS011;47465;43.094;12.434;2023-02-23T09:48:16;46.17;;;25.42;;
61572;SDS011;47465;43.094;12.434;2023-02-23T09:50:45;41.08;;;24.70;;
61572;SDS011;47465;43.094;12.434;2023-02-23T09:53:18;45.17;;;26.25;;
61572;SDS011;47465;43.094;12.434;2023-02-23T09:55:50;38.50;;;24.00;;
61572;SDS011;47465;43.094;12.434;2023-02-23T09:58:22;42.78;;;26.30;;
61572;SDS011;47465;43.094;12.434;2023-02-23T10:00:50;45.92;;;26.20;;
61572;SDS011;47465;43.094;12.434;2023-02-23T10:03:41;40.80;;;24.50;;
61572;SDS011;47465;43.094;12.434;2023-02-23T10:06:16;44.65;;;25.73;;
61572;SDS011;47465;43.094;12.434;2023-02-23T10:08:47;46.10;;;27.00;;
61572;SDS011;47465;43.094;12.434;2023-02-23T10:11:26;42.72;;;26.30;;
61572;SDS011;47465;43.094;12.434;2023-02-23T10:14:02;45.65;;;26.50;;
61572;SDS011;47465;43.094;12.434;2023-02-23T10:16:40;41.97;;;24.73;;
61572;SDS011;47465;43.094;12.434;2023-02-23T10:19:18;41.88;;;24.80;;
61572;SDS011;47465;43.094;12.434;2023-02-23T10:21:52;39.75;;;24.83;;
61572;SDS011;47465;43.094;12.434;2023-02-23T10:24:21;43.92;;;25.63;;
61572;SDS011;47465;43.094;12.434;2023-02-23T10:26:52;45.05;;;25.70;;
61572;SDS011;47465;43.094;12.434;2023-02-23T10:29:24;45.50;;;27.15;;
61572;SDS011;47465;43.094;12.434;2023-02-23T10:31:53;45.90;;;26.13;;
61572;SDS011;47465;43.094;12.434;2023-02-23T10:34:22;44.95;;;25.85;;
61572;SDS011;47465;43.094;12.434;2023-02-23T10:36:51;43.40;;;25.30;;
61572;SDS011;47465;43.094;12.434;2023-02-23T10:39:23;40.70;;;24.25;;
61572;SDS011;47465;43.094;12.434;2023-02-23T10:41:50;43.38;;;26.13;;
61572;SDS011;47465;43.094;12.434;2023-02-23T10:44:17;43.83;;;25.90;;
61572;SDS011;47465;43.094;12.434;2023-02-23T10:46:48;44.33;;;26.10;;
61572;SDS011;47465;43.094;12.434;2023-02-23T10:49:19;46.80;;;26.13;;
61572;SDS011;47465;43.094;12.434;2023-02-23T10:57:02;44.88;;;24.63;;
61572;SDS011;47465;43.094;12.434;2023-02-23T10:59:30;43.30;;;25.15;;
61572;SDS011;47465;43.094;12.434;2023-02-23T11:01:57;44.97;;;24.98;;
61572;SDS011;47465;43.094;12.434;2023-02-23T11:04:24;43.90;;;25.80;;
61572;SDS011;47465;43.094;12.434;2023-02-23T11:06:54;43.90;;;25.05;;
61572;SDS011;47465;43.094;12.434;2023-02-23T11:09:31;48.17;;;27.23;;
61572;SDS011;47465;43.094;12.434;2023-02-23T11:11:59;42.65;;;27.13;;
61572;SDS011;47465;43.094;12.434;2023-02-23T11:14:27;49.53;;;27.37;;
61572;SDS011;47465;43.094;12.434;2023-02-23T11:16:55;44.80;;;27.20;;
61572;SDS011;47465;43.094;12.434;2023-02-23T11:19:26;46.33;;;26.90;;
61572;SDS011;47465;43.094;12.434;2023-02-23T11:21:57;45.40;;;26.70;;
61572;SDS011;47465;43.094;12.434;2023-02-23T11:24:24;47.75;;;26.88;;
61572;SDS011;47465;43.094;12.434;2023-02-23T11:26:55;46.67;;;26.15;;
61572;SDS011;47465;43.094;12.434;2023-02-23T11:29:25;46.83;;;25.92;;
61572;SDS011;47465;43.094;12.434;2023-02-23T11:31:59;41.17;;;24.67;;
61572;SDS011;47465;43.094;12.434;2023-02-23T11:34:34;44.50;;;26.40;;
61572;SDS011;47465;43.094;12.434;2023-02-23T11:37:05;37.13;;;22.48;;
61572;SDS011;47465;43.094;12.434;2023-02-23T11:39:49;34.83;;;21.55;;
61572;SDS011;47465;43.094;12.434;2023-02-23T11:42:17;39.15;;;20.65;;
61572;SDS011;47465;43.094;12.434;2023-02-23T11:44:49;35.30;;;19.35;;
61572;SDS011;47465;43.094;12.434;2023-02-23T11:47:17;34.15;;;19.45;;
61572;SDS011;47465;43.094;12.434;2023-02-23T11:49:47;34.75;;;19.40;;
61572;SDS011;47465;43.094;12.434;2023-02-23T11:52:14;32.50;;;17.85;;
61572;SDS011;47465;43.094;12.434;2023-02-23T11:54:42;30.00;;;17.42;;
61572;SDS011;47465;43.094;12.434;2023-02-23T11:57:18;27.08;;;15.32;;
61572;SDS011;47465;43.094;12.434;2023-02-23T11:59:46;23.60;;;15.23;;
61572;SDS011;47465;43.094;12.434;2023-02-23T12:02:17;27.20;;;15.68;;
61572;SDS011;47465;43.094;12.434;2023-02-23T12:04:48;23.48;;;14.75;;
61572;SDS011;47465;43.094;12.434;2023-02-23T12:07:30;24.13;;;14.77;;
61572;SDS011;47465;43.094;12.434;2023-02-23T12:10:08;25.60;;;14.90;;
61572;SDS011;47465;43.094;12.434;2023-02-23T12:12:43;25.10;;;14.77;;
61572;SDS011;47465;43.094;12.434;2023-02-23T12:15:19;26.02;;;15.07;;
61572;SDS011;47465;43.094;12.434;2023-02-23T12:17:52;31.20;;;16.60;;
61572;SDS011;47465;43.094;12.434;2023-02-23T12:20:24;26.35;;;15.75;;
61572;SDS011;47465;43.094;12.434;2023-02-23T12:22:53;25.95;;;15.68;;
61572;SDS011;47465;43.094;12.434;2023-02-23T12:25:24;25.15;;;15.48;;
61572;SDS011;47465;43.094;12.434;2023-02-23T12:27:56;26.88;;;15.25;;
61572;SDS011;47465;43.094;12.434;2023-02-23T12:30:31;25.70;;;15.90;;
61572;SDS011;47465;43.094;12.434;2023-02-23T12:33:06;25.70;;;15.90;;
61572;SDS011;47465;43.094;12.434;2023-02-23T12:35:43;24.65;;;14.68;;
61572;SDS011;47465;43.094;12.434;2023-02-23T12:38:16;24.40;;;14.30;;
61572;SDS011;47465;43.094;12.434;2023-02-23T12:40:53;24.95;;;15.35;;
61572;SDS011;47465;43.094;12.434;2023-02-23T12:43:28;27.10;;;15.90;;
61572;SDS011;47465;43.094;12.434;2023-02-23T12:46:06;29.63;;;16.70;;
61572;SDS011;47465;43.094;12.434;2023-02-23T12:48:41;25.15;;;14.90;;
61572;SDS011;47465;43.094;12.434;2023-02-23T12:51:17;26.63;;;16.23;;
61572;SDS011;47465;43.094;12.434;2023-02-23T12:53:48;30.50;;;17.48;;
61572;SDS011;47465;43.094;12.434;2023-02-23T13:02:09;23.63;;;14.20;;
61572;SDS011;47465;43.094;12.434;2023-02-23T13:07:41;25.92;;;15.20;;
61572;SDS011;47465;43.094;12.434;2023-02-23T13:10:16;25.10;;;14.77;;
61572;SDS011;47465;43.094;12.434;2023-02-23T13:12:52;28.13;;;15.77;;
61572;SDS011;47465;43.094;12.434;2023-02-23T13:15:28;26.77;;;16.35;;
61572;SDS011;47465;43.094;12.434;2023-02-23T13:18:08;29.85;;;16.02;;
61572;SDS011;47465;43.094;12.434;2023-02-23T13:20:39;26.35;;;14.77;;
61572;SDS011;47465;43.094;12.434;2023-02-23T13:23:13;27.92;;;17.20;;
61572;SDS011;47465;43.094;12.434;2023-02-23T13:25:47;33.97;;;15.30;;
61572;SDS011;47465;43.094;12.434;2023-02-23T13:28:20;27.25;;;;;
61572;SDS011;47465;43.094;12.434;2023-02-23T13:30:59;26.92;;;15.18;;
61572;SDS011;47465;43.094;12.434;2023-02-23T13:33:25;25.70;;;15.63;;
61572;SDS011;47465;43.094;12.434;2023-02-23T13:35:55;26.90;;;14.63;;
61572;SDS011;47465;43.094;12.434;2023-02-23T13:38:27;26.05;;;15.05;;
61572;SDS011;47465;43.094;12.434;2023-02-23T13:41:03;25.70;;;15.38;;
61572;SDS011;47465;43.094;12.434;2023-02-23T13:43:33;25.88;;;15.15;;
61572;SDS011;47465;43.094;12.434;2023-02-23T13:48:55;25.20;;;15.15;;
61572;SDS011;47465;43.094;12.434;2023-02-23T13:51:33;29.45;;;17.35;;
61572;SDS011;47465;43.094;12.434;2023-02-23T13:54:20;33.60;;;16.92;;
61572;SDS011;47465;43.094;12.434;2023-02-23T13:56:49;24.90;;;15.32;;
61572;SDS011;47465;43.094;12.434;2023-02-23T13:59:19;26.10;;;15.55;;
61572;SDS011;47465;43.094;12.434;2023-02-23T14:01:47;23.50;;;13.73;;
61572;SDS011;47465;43.094;12.434;2023-02-23T14:04:20;27.15;;;15.10;;
61572;SDS011;47465;43.094;12.434;2023-02-23T14:06:52;25.67;;;14.43;;
61572;SDS011;47465;43.094;12.434;2023-02-23T14:09:23;25.15;;;15.30;;
61572;SDS011;47465;43.094;12.434;2023-02-23T14:11:55;25.80;;;15.40;;
61572;SDS011;47465;43.094;12.434;2023-02-23T14:14:37;23.30;;;14.50;;
61572;SDS011;47465;43.094;12.434;2023-02-23T14:17:10;24.58;;;14.20;;
61572;SDS011;47465;43.094;12.434;2023-02-23T14:20:24;23.40;;;13.60;;
61572;SDS011;47465;43.094;12.434;2023-02-23T14:23:29;23.70;;;13.73;;
61572;SDS011;47465;43.094;12.434;2023-02-23T14:26:14;24.60;;;15.13;;
61572;SDS011;47465;43.094;12.434;2023-02-23T14:29:09;25.52;;;15.18;;
61572;SDS011;47465;43.094;12.434;2023-02-23T14:31:54;26.70;;;14.20;;
61572;SDS011;47465;43.094;12.434;2023-02-23T14:34:22;20.98;;;13.75;;
61572;SDS011;47465;43.094;12.434;2023-02-23T14:37:13;24.92;;;13.32;;
61572;SDS011;47465;43.094;12.434;2023-02-23T14:39:42;26.00;;;14.25;;
61572;SDS011;47465;43.094;12.434;2023-02-23T14:42:13;25.38;;;14.40;;
61572;SDS011;47465;43.094;12.434;2023-02-23T14:44:46;22.25;;;12.55;;
61572;SDS011;47465;43.094;12.434;2023-02-23T14:47:16;22.02;;;14.13;;
61572;SDS011;47465;43.094;12.434;2023-02-23T14:49:46;21.27;;;12.80;;
61572;SDS011;47465;43.094;12.434;2023-02-23T14:52:16;24.70;;;13.85;;
61572;SDS011;47465;43.094;12.434;2023-02-23T14:54:45;25.10;;;13.15;;
61572;SDS011;47465;43.094;12.434;2023-02-23T14:57:17;22.60;;;13.25;;
61572;SDS011;47465;43.094;12.434;2023-02-23T14:59:50;22.50;;;13.43;;
61572;SDS011;47465;43.094;12.434;2023-02-23T15:02:18;22.88;;;13.38;;
61572;SDS011;47465;43.094;12.434;2023-02-23T15:04:45;21.73;;;12.45;;
61572;SDS011;47465;43.094;12.434;2023-02-23T15:07:13;21.23;;;12.13;;
61572;SDS011;47465;43.094;12.434;2023-02-23T15:09:43;19.83;;;11.98;;
61572;SDS011;47465;43.094;12.434;2023-02-23T15:12:12;21.40;;;11.87;;
61572;SDS011;47465;43.094;12.434;2023-02-23T15:14:42;23.15;;;12.65;;
61572;SDS011;47465;43.094;12.434;2023-02-23T15:17:13;21.98;;;12.45;;
61572;SDS011;47465;43.094;12.434;2023-02-23T15:19:42;22.33;;;13.38;;
61572;SDS011;47465;43.094;12.434;2023-02-23T15:22:13;23.23;;;13.63;;